createdAt,value
2022-12-18T00:02:17.965Z,5.13
2022-12-18T00:04:45.347Z,5.45
2022-12-18T00:07:12.457Z,4.85
2022-12-18T00:09:40.579Z,5.78
2022-12-18T00:14:42.919Z,5.63
2022-12-18T00:17:10.161Z,5.03
2022-12-18T00:19:37.323Z,5.00
2022-12-18T00:22:04.654Z,5.03
2022-12-18T00:24:31.895Z,5.38
2022-12-18T00:26:59.004Z,5.05
2022-12-18T00:29:26.063Z,5.13
2022-12-18T00:31:53.755Z,5.38
2022-12-18T00:34:20.861Z,5.05
2022-12-18T00:36:49.345Z,4.80
2022-12-18T00:39:16.463Z,5.20
2022-12-18T00:42:02.456Z,4.70
2022-12-18T00:44:29.545Z,5.03
2022-12-18T00:46:56.710Z,4.97
2022-12-18T00:49:23.806Z,4.97
2022-12-18T00:51:50.932Z,5.35
2022-12-18T00:54:18.622Z,5.00
2022-12-18T00:56:48.997Z,4.93
2022-12-18T00:59:17.269Z,4.95
2022-12-18T01:01:44.510Z,5.40
2022-12-18T01:04:11.779Z,5.05
2022-12-18T01:06:38.879Z,5.60
2022-12-18T01:09:08.269Z,6.28
2022-12-18T01:11:35.340Z,5.63
2022-12-18T01:14:02.516Z,5.32
2022-12-18T01:16:29.682Z,5.57
2022-12-18T01:18:56.908Z,5.05
2022-12-18T01:21:25.065Z,5.65
2022-12-18T01:23:56.311Z,4.93
2022-12-18T01:26:23.474Z,5.35
2022-12-18T01:28:50.637Z,5.57
2022-12-18T01:31:19.927Z,5.57
2022-12-18T01:33:47.200Z,5.15
2022-12-18T01:36:22.144Z,5.28
2022-12-18T01:38:49.540Z,5.65
2022-12-18T01:41:18.241Z,5.65
2022-12-18T01:43:47.198Z,5.93
2022-12-18T01:48:41.969Z,6.00
2022-12-18T01:51:10.314Z,5.30
2022-12-18T01:53:38.024Z,5.55
2022-12-18T01:56:05.641Z,5.78
2022-12-18T01:58:43.318Z,5.47
2022-12-18T02:01:10.560Z,5.70
2022-12-18T02:03:38.199Z,5.25
2022-12-18T02:06:08.752Z,4.88
2022-12-18T02:08:47.471Z,5.70
2022-12-18T02:11:20.211Z,5.82
2022-12-18T02:13:47.319Z,5.43
2022-12-18T02:16:23.450Z,5.38
2022-12-18T02:18:52.492Z,5.40
2022-12-18T02:21:30.172Z,5.53
2022-12-18T02:24:16.318Z,5.82
2022-12-18T02:26:53.350Z,5.82
2022-12-18T02:29:28.530Z,5.40
2022-12-18T02:34:24.426Z,5.10
2022-12-18T02:36:52.369Z,6.00
2022-12-18T02:39:21.349Z,5.75
2022-12-18T02:44:15.795Z,5.57
2022-12-18T02:46:44.791Z,5.38
2022-12-18T02:51:48.109Z,5.65
2022-12-18T02:54:21.038Z,5.75
2022-12-18T02:56:54.282Z,5.30
2022-12-18T02:59:24.889Z,4.82
2022-12-18T03:01:52.101Z,5.43
2022-12-18T03:04:22.535Z,5.13
2022-12-18T03:06:51.564Z,5.53
2022-12-18T03:12:06.942Z,5.35
2022-12-18T03:14:35.657Z,5.03
2022-12-18T03:17:04.640Z,5.97
2022-12-18T03:19:34.026Z,5.38
2022-12-18T03:22:03.400Z,5.28
2022-12-18T03:24:31.513Z,5.45
2022-12-18T03:27:02.462Z,5.38
2022-12-18T03:29:34.723Z,5.00
2022-12-18T03:32:08.189Z,5.20
2022-12-18T03:34:37.232Z,4.78
2022-12-18T03:39:32.878Z,4.68
2022-12-18T03:42:06.566Z,5.07
2022-12-18T03:44:36.504Z,5.35
2022-12-18T03:47:03.628Z,5.32
2022-12-18T03:49:36.820Z,5.13
2022-12-18T03:52:06.898Z,5.60
2022-12-18T03:54:34.733Z,5.45
2022-12-18T03:57:08.315Z,5.40
2022-12-18T03:59:36.455Z,5.40
2022-12-18T04:02:04.688Z,5.35
2022-12-18T04:04:32.693Z,4.75
2022-12-18T04:07:00.143Z,4.75
2022-12-18T04:09:27.715Z,4.82
2022-12-18T04:11:54.823Z,5.15
2022-12-18T04:14:21.975Z,5.30
2022-12-18T04:16:49.086Z,4.97
2022-12-18T04:19:16.232Z,4.95
2022-12-18T04:21:43.361Z,4.82
2022-12-18T04:24:10.536Z,4.93
2022-12-18T04:26:37.645Z,4.57
2022-12-18T04:29:04.737Z,4.55
2022-12-18T04:31:31.933Z,5.18
2022-12-18T04:33:59.031Z,4.68
2022-12-18T04:36:26.146Z,4.75
2022-12-18T04:38:53.211Z,4.68
2022-12-18T04:41:20.383Z,4.85
2022-12-18T04:43:47.450Z,4.50
2022-12-18T04:46:14.600Z,4.63
2022-12-18T04:48:41.769Z,4.65
2022-12-18T04:51:08.945Z,4.13
2022-12-18T04:53:36.084Z,5.32
2022-12-18T04:56:13.717Z,5.13
2022-12-18T04:58:41.629Z,4.47
2022-12-18T05:01:09.468Z,4.60
2022-12-18T05:03:37.867Z,4.55
2022-12-18T05:06:06.054Z,4.40
2022-12-18T05:08:33.533Z,4.70
2022-12-18T05:11:07.932Z,4.10
2022-12-18T05:13:35.295Z,5.25
2022-12-18T05:16:02.854Z,4.45
2022-12-18T05:18:31.426Z,3.80
2022-12-18T05:20:58.934Z,4.70
2022-12-18T05:23:26.466Z,4.68
2022-12-18T05:25:54.233Z,4.18
2022-12-18T05:28:21.833Z,4.75
2022-12-18T05:30:52.577Z,4.50
2022-12-18T05:33:20.414Z,4.45
2022-12-18T05:35:52.002Z,4.03
2022-12-18T05:38:19.432Z,4.00
2022-12-18T05:40:47.020Z,4.05
2022-12-18T05:43:19.361Z,4.28
2022-12-18T05:45:48.207Z,3.90
2022-12-18T05:48:15.527Z,4.18
2022-12-18T05:50:43.645Z,3.90
2022-12-18T05:53:11.586Z,4.07
2022-12-18T05:55:39.519Z,3.95
2022-12-18T05:58:07.012Z,3.95
2022-12-18T06:00:35.809Z,4.00
2022-12-18T06:03:03.160Z,4.63
2022-12-18T06:05:30.396Z,4.20
2022-12-18T06:07:57.454Z,3.88
2022-12-18T06:10:25.698Z,4.10
2022-12-18T06:12:52.796Z,4.38
2022-12-18T06:15:19.902Z,3.50
2022-12-18T06:17:47.070Z,3.78
2022-12-18T06:20:14.199Z,3.80
2022-12-18T06:22:42.430Z,3.50
2022-12-18T06:25:09.868Z,3.80
2022-12-18T06:27:37.340Z,3.78
2022-12-18T06:30:04.937Z,3.63
2022-12-18T06:32:32.108Z,4.28
2022-12-18T06:34:59.373Z,3.42
2022-12-18T06:37:27.103Z,3.42
2022-12-18T06:39:54.833Z,3.83
2022-12-18T06:42:25.552Z,4.05
2022-12-18T06:44:52.743Z,3.35
2022-12-18T06:47:20.090Z,3.60
2022-12-18T06:49:47.173Z,4.03
2022-12-18T06:52:14.408Z,4.00
2022-12-18T06:54:41.534Z,3.20
2022-12-18T06:57:08.682Z,3.47
2022-12-18T06:59:35.764Z,3.67
2022-12-18T07:02:02.929Z,3.50
2022-12-18T07:04:30.996Z,3.90
2022-12-18T07:06:58.540Z,3.85
2022-12-18T07:09:26.004Z,3.50
2022-12-18T07:11:53.925Z,3.67
2022-12-18T07:14:21.580Z,3.72
2022-12-18T07:16:48.744Z,3.10
2022-12-18T07:19:16.989Z,3.35
2022-12-18T07:21:44.205Z,3.00
2022-12-18T07:24:11.365Z,3.92
2022-12-18T07:26:38.508Z,3.92
2022-12-18T07:29:05.581Z,4.10
2022-12-18T07:31:32.772Z,3.67
2022-12-18T07:33:59.995Z,3.72
2022-12-18T07:36:27.130Z,3.20
2022-12-18T07:38:54.282Z,3.63
2022-12-18T07:41:21.449Z,3.78
2022-12-18T07:43:48.653Z,3.95
2022-12-18T07:46:16.689Z,3.60
2022-12-18T07:48:46.290Z,3.80
2022-12-18T07:51:17.268Z,3.40
2022-12-18T07:53:45.510Z,3.80
2022-12-18T07:56:31.152Z,3.60
2022-12-18T07:58:58.948Z,3.25
2022-12-18T08:01:26.374Z,3.45
2022-12-18T08:03:53.597Z,3.55
2022-12-18T08:06:23.241Z,3.17
2022-12-18T08:08:52.653Z,3.67
2022-12-18T08:11:19.788Z,3.40
2022-12-18T08:13:46.979Z,3.10
2022-12-18T08:16:14.174Z,3.80
2022-12-18T08:18:41.334Z,3.28
2022-12-18T08:21:16.381Z,3.42
2022-12-18T08:23:44.271Z,3.30
2022-12-18T08:26:12.287Z,3.38
2022-12-18T08:28:39.530Z,2.95
2022-12-18T08:31:07.021Z,3.17
2022-12-18T08:33:34.719Z,3.00
2022-12-18T08:36:02.563Z,2.97
2022-12-18T08:38:29.741Z,2.70
2022-12-18T08:41:04.476Z,3.13
2022-12-18T08:43:50.331Z,3.10
2022-12-18T08:46:17.958Z,3.13
2022-12-18T08:48:45.328Z,3.30
2022-12-18T08:51:12.598Z,3.38
2022-12-18T08:53:40.770Z,2.78
2022-12-18T08:56:08.416Z,2.97
2022-12-18T08:58:35.539Z,2.70
2022-12-18T09:01:03.756Z,2.70
2022-12-18T09:03:31.221Z,2.72
2022-12-18T09:05:58.546Z,2.70
2022-12-18T09:08:25.641Z,2.53
2022-12-18T09:10:53.177Z,2.83
2022-12-18T09:13:20.668Z,2.65
2022-12-18T09:15:49.338Z,3.10
2022-12-18T09:18:17.085Z,2.72
2022-12-18T09:20:44.205Z,3.10
2022-12-18T09:23:11.439Z,2.78
2022-12-18T09:25:38.873Z,2.55
2022-12-18T09:28:13.835Z,3.33
2022-12-18T09:30:41.937Z,2.50
2022-12-18T09:33:09.255Z,2.70
2022-12-18T09:35:39.738Z,2.80
2022-12-18T09:38:07.164Z,3.03
2022-12-18T09:40:40.329Z,2.83
2022-12-18T09:43:08.706Z,2.35
2022-12-18T09:45:45.810Z,2.55
2022-12-18T09:48:20.346Z,3.05
2022-12-18T09:50:47.991Z,2.53
2022-12-18T09:53:19.371Z,2.67
2022-12-18T09:55:47.456Z,2.72
2022-12-18T09:58:20.700Z,2.70
2022-12-18T10:00:48.047Z,3.25
2022-12-18T10:03:16.045Z,2.85
2022-12-18T10:05:46.978Z,2.63
2022-12-18T10:08:25.028Z,2.63
2022-12-18T10:10:53.823Z,2.58
2022-12-18T10:13:24.343Z,2.40
2022-12-18T10:15:52.857Z,2.80
2022-12-18T10:18:26.799Z,2.58
2022-12-18T10:20:56.488Z,2.65
2022-12-18T10:24:02.181Z,2.25
2022-12-18T10:26:29.355Z,2.47
2022-12-18T10:29:02.203Z,2.95
2022-12-18T10:31:32.644Z,2.42
2022-12-18T10:34:00.081Z,2.63
2022-12-18T10:36:27.209Z,2.72
2022-12-18T10:38:54.392Z,2.50
2022-12-18T10:41:27.414Z,2.72
2022-12-18T10:44:13.004Z,2.50
2022-12-18T10:46:43.526Z,2.63
2022-12-18T10:49:20.952Z,2.47
2022-12-18T10:51:51.317Z,2.63
2022-12-18T10:54:24.427Z,2.60
2022-12-18T10:56:52.189Z,2.63
2022-12-18T10:59:20.189Z,2.65
2022-12-18T11:01:49.591Z,2.65
2022-12-18T11:04:18.843Z,2.28
2022-12-18T11:07:04.530Z,2.42
2022-12-18T11:09:38.592Z,2.25
2022-12-18T11:12:07.552Z,2.33
2022-12-18T11:14:35.852Z,2.60
2022-12-18T11:17:25.275Z,2.55
2022-12-18T11:20:00.199Z,2.42
2022-12-18T11:22:29.380Z,2.83
2022-12-18T11:27:54.624Z,2.55
2022-12-18T11:30:21.786Z,2.20
2022-12-18T11:32:50.517Z,2.50
2022-12-18T11:35:27.706Z,3.08
2022-12-18T11:38:12.643Z,2.38
2022-12-18T11:40:42.016Z,2.60
2022-12-18T11:43:09.115Z,2.10
2022-12-18T11:45:37.695Z,2.33
2022-12-18T11:48:07.871Z,2.42
2022-12-18T11:50:39.026Z,2.40
2022-12-18T11:53:06.639Z,2.55
2022-12-18T11:55:48.805Z,2.33
2022-12-18T11:58:45.746Z,2.58
2022-12-18T12:01:21.678Z,2.25
2022-12-18T12:04:13.257Z,2.40
2022-12-18T12:06:49.797Z,2.78
2022-12-18T12:09:19.679Z,2.55
2022-12-18T12:11:55.698Z,2.50
2022-12-18T12:14:35.049Z,1.92
2022-12-18T12:17:04.871Z,2.53
2022-12-18T12:19:37.168Z,2.53
2022-12-18T12:22:04.248Z,2.20
2022-12-18T12:24:49.728Z,2.17
2022-12-18T12:27:19.871Z,2.28
2022-12-18T12:30:05.706Z,2.40
2022-12-18T12:33:03.865Z,2.50
2022-12-18T12:35:30.983Z,1.85
2022-12-18T12:38:01.222Z,2.30
2022-12-18T12:43:26.028Z,2.13
2022-12-18T12:46:01.997Z,2.67
2022-12-18T12:48:34.482Z,2.45
2022-12-18T12:51:09.120Z,2.60
2022-12-18T12:53:39.343Z,2.20
2022-12-18T12:56:07.667Z,2.78
2022-12-18T12:58:34.818Z,2.50
2022-12-18T13:01:07.763Z,2.25
2022-12-18T13:03:40.744Z,2.70
2022-12-18T13:06:44.547Z,2.80
2022-12-18T13:09:12.190Z,2.78
2022-12-18T13:12:05.113Z,2.55
2022-12-18T13:14:32.359Z,1.90
2022-12-18T13:17:32.270Z,2.10
2022-12-18T13:20:07.319Z,2.60
2022-12-18T13:22:38.804Z,2.60
2022-12-18T13:25:26.221Z,2.95
2022-12-18T13:28:04.086Z,2.25
2022-12-18T13:30:34.455Z,2.38
2022-12-18T13:33:17.583Z,2.33
2022-12-18T13:35:47.755Z,2.38
2022-12-18T13:38:23.856Z,2.30
2022-12-18T13:40:51.120Z,2.15
2022-12-18T13:43:23.723Z,2.40
2022-12-18T13:46:03.315Z,2.20
2022-12-18T13:48:32.891Z,3.30
2022-12-18T13:51:05.080Z,2.60
2022-12-18T13:53:34.796Z,2.63
2022-12-18T13:56:03.682Z,2.70
2022-12-18T13:58:31.106Z,2.28
2022-12-18T14:01:03.043Z,2.22
2022-12-18T14:03:31.652Z,2.95
2022-12-18T14:06:03.834Z,2.40
2022-12-18T14:08:34.746Z,2.58
2022-12-18T14:11:02.446Z,2.30
2022-12-18T14:13:32.913Z,2.50
2022-12-18T14:16:03.791Z,2.50
2022-12-18T14:18:44.633Z,3.05
2022-12-18T14:21:25.831Z,2.47
2022-12-18T14:24:06.355Z,2.60
2022-12-18T14:26:34.259Z,2.72
2022-12-18T14:29:23.265Z,2.22
2022-12-18T14:32:14.951Z,2.38
2022-12-18T14:34:55.143Z,2.30
2022-12-18T14:37:26.370Z,2.40
2022-12-18T14:39:54.962Z,2.75
2022-12-18T14:42:22.122Z,2.67
2022-12-18T14:47:36.418Z,2.20
2022-12-18T14:50:03.664Z,2.58
2022-12-18T14:52:33.317Z,1.98
2022-12-18T14:55:00.939Z,2.20
2022-12-18T14:57:34.410Z,2.47
2022-12-18T15:00:10.734Z,2.60
2022-12-18T15:02:38.198Z,2.60
2022-12-18T15:05:12.891Z,2.10
2022-12-18T15:07:44.751Z,2.42
2022-12-18T15:10:15.449Z,2.20
2022-12-18T15:12:46.493Z,2.42
2022-12-18T15:15:33.019Z,2.55
2022-12-18T15:18:14.253Z,2.92
2022-12-18T15:20:42.696Z,2.88
2022-12-18T15:23:29.373Z,2.65
2022-12-18T15:26:05.873Z,2.78
2022-12-18T15:28:36.194Z,2.25
2022-12-18T15:31:12.607Z,2.28
2022-12-18T15:33:45.204Z,2.42
2022-12-18T15:36:16.706Z,2.50
2022-12-18T15:38:49.917Z,2.63
2022-12-18T15:41:24.209Z,2.63
2022-12-18T15:43:52.761Z,2.25
2022-12-18T15:46:24.317Z,2.35
2022-12-18T15:48:55.539Z,2.25
2022-12-18T15:51:47.226Z,2.85
2022-12-18T15:54:39.480Z,2.58
2022-12-18T15:57:27.650Z,2.38
2022-12-18T15:59:59.223Z,2.88
2022-12-18T16:02:26.910Z,2.83
2022-12-18T16:04:55.040Z,2.20
2022-12-18T16:07:25.471Z,2.10
2022-12-18T16:09:53.236Z,2.58
2022-12-18T16:12:24.314Z,2.78
2022-12-18T16:14:51.979Z,2.42
2022-12-18T16:17:19.838Z,2.63
2022-12-18T16:19:46.951Z,2.40
2022-12-18T16:22:21.968Z,2.13
2022-12-18T16:24:49.167Z,2.42
2022-12-18T16:27:16.533Z,2.88
2022-12-18T16:29:45.050Z,2.50
2022-12-18T16:32:16.776Z,2.60
2022-12-18T16:34:44.599Z,2.53
2022-12-18T16:37:12.495Z,2.47
2022-12-18T16:39:40.226Z,2.88
2022-12-18T16:42:20.008Z,2.85
2022-12-18T16:44:48.443Z,2.67
2022-12-18T16:47:17.297Z,2.90
2022-12-18T16:49:51.491Z,2.90
2022-12-18T16:52:18.617Z,2.85
2022-12-18T16:54:45.803Z,2.70
2022-12-18T16:57:17.390Z,2.63
2022-12-18T16:59:44.878Z,2.53
2022-12-18T17:02:17.202Z,2.85
2022-12-18T17:04:46.466Z,2.80
2022-12-18T17:07:14.306Z,2.40
2022-12-18T17:09:41.858Z,2.80
2022-12-18T17:12:09.451Z,3.33
2022-12-18T17:14:37.157Z,2.60
2022-12-18T17:17:21.781Z,2.92
2022-12-18T17:19:50.109Z,2.50
2022-12-18T17:22:17.229Z,2.55
2022-12-18T17:24:47.327Z,2.90
2022-12-18T17:27:14.815Z,2.58
2022-12-18T17:29:48.086Z,2.10
2022-12-18T17:32:15.869Z,2.60
2022-12-18T17:34:42.944Z,2.50
2022-12-18T17:37:17.169Z,2.65
2022-12-18T17:39:46.338Z,3.08
2022-12-18T17:42:15.541Z,2.63
2022-12-18T17:44:43.146Z,2.83
2022-12-18T17:47:14.275Z,2.83
2022-12-18T17:49:41.507Z,2.47
2022-12-18T17:52:08.978Z,3.13
2022-12-18T17:54:39.464Z,2.80
2022-12-18T17:57:06.652Z,3.10
2022-12-18T17:59:34.053Z,2.90
2022-12-18T18:02:02.834Z,2.58
2022-12-18T18:04:30.118Z,3.30
2022-12-18T18:06:57.185Z,2.83
2022-12-18T18:09:25.471Z,2.40
2022-12-18T18:12:11.574Z,3.10
2022-12-18T18:14:40.965Z,2.95
2022-12-18T18:17:08.334Z,3.08
2022-12-18T18:19:40.911Z,3.08
2022-12-18T18:22:10.339Z,2.80
2022-12-18T18:24:38.016Z,3.00
2022-12-18T18:27:05.247Z,2.88
2022-12-18T18:29:32.479Z,3.45
2022-12-18T18:31:59.706Z,3.03
2022-12-18T18:34:30.376Z,3.28
2022-12-18T18:36:57.469Z,3.72
2022-12-18T18:39:24.633Z,3.50
2022-12-18T18:41:52.152Z,3.45
2022-12-18T18:44:21.541Z,3.20
2022-12-18T18:46:54.468Z,3.15
2022-12-18T18:49:21.619Z,3.22
2022-12-18T18:51:50.838Z,2.95
2022-12-18T18:54:17.970Z,3.20
2022-12-18T18:57:18.727Z,2.75
2022-12-18T18:59:32.411Z,2.88
2022-12-18T19:02:04.214Z,3.65
2022-12-18T19:04:32.500Z,3.28
2022-12-18T19:06:59.679Z,2.97
2022-12-18T19:09:27.986Z,3.10
2022-12-18T19:12:14.385Z,3.28
2022-12-18T19:14:41.449Z,3.15
2022-12-18T19:17:09.265Z,4.28
2022-12-18T19:19:36.630Z,3.40
2022-12-18T19:22:04.154Z,3.85
2022-12-18T19:24:31.452Z,3.72
2022-12-18T19:27:02.111Z,3.78
2022-12-18T19:29:29.233Z,3.17
2022-12-18T19:31:56.460Z,3.55
2022-12-18T19:34:23.608Z,3.90
2022-12-18T19:36:53.944Z,4.05
2022-12-18T19:39:27.723Z,3.95
2022-12-18T19:41:54.869Z,4.05
2022-12-18T19:44:21.998Z,4.03
2022-12-18T19:46:51.689Z,3.53
2022-12-18T19:49:22.082Z,3.35
2022-12-18T19:51:50.455Z,3.08
2022-12-18T19:54:18.240Z,3.58
2022-12-18T19:56:46.102Z,3.28
2022-12-18T19:59:13.336Z,3.80
2022-12-18T20:01:40.650Z,3.80
2022-12-18T20:04:08.269Z,3.42
2022-12-18T20:06:56.026Z,3.60
2022-12-18T20:09:23.394Z,3.63
2022-12-18T20:11:50.998Z,4.15
2022-12-18T20:14:21.147Z,3.63
2022-12-18T20:16:50.703Z,3.55
2022-12-18T20:19:19.281Z,3.67
2022-12-18T20:21:47.058Z,3.75
2022-12-18T20:24:14.394Z,3.75
2022-12-18T20:26:41.597Z,3.47
2022-12-18T20:29:08.769Z,3.60
2022-12-18T20:31:35.957Z,3.38
2022-12-18T20:34:05.047Z,3.53
2022-12-18T20:36:35.322Z,4.53
2022-12-18T20:39:07.509Z,3.78
2022-12-18T20:41:37.554Z,3.38
2022-12-18T20:44:09.873Z,3.53
2022-12-18T20:46:49.654Z,3.47
2022-12-18T20:49:22.630Z,3.60
2022-12-18T20:51:54.001Z,3.30
2022-12-18T20:54:22.017Z,3.60
2022-12-18T20:56:49.349Z,3.47
2022-12-18T20:59:20.054Z,3.72
2022-12-18T21:01:52.425Z,3.70
2022-12-18T21:04:20.223Z,3.47
2022-12-18T21:07:02.088Z,3.28
2022-12-18T21:09:37.538Z,3.92
2022-12-18T21:12:27.945Z,3.22
2022-12-18T21:14:55.385Z,3.53
2022-12-18T21:17:26.714Z,3.38
2022-12-18T21:19:55.965Z,3.13
2022-12-18T21:22:23.569Z,3.90
2022-12-18T21:24:50.992Z,2.85
2022-12-18T21:27:18.512Z,3.50
2022-12-18T21:29:47.131Z,3.50
2022-12-18T21:32:15.923Z,3.50
2022-12-18T21:34:52.574Z,3.40
2022-12-18T21:37:22.507Z,3.80
2022-12-18T21:39:52.445Z,3.78
2022-12-18T21:42:38.404Z,3.40
2022-12-18T21:45:06.277Z,3.17
2022-12-18T21:47:33.505Z,3.20
2022-12-18T21:50:00.657Z,3.47
2022-12-18T21:52:32.578Z,3.35
2022-12-18T21:55:06.640Z,3.45
2022-12-18T21:57:39.360Z,3.40
2022-12-18T22:00:07.476Z,3.33
2022-12-18T22:02:45.557Z,3.88
2022-12-18T22:05:13.013Z,2.72
2022-12-18T22:07:40.509Z,3.17
2022-12-18T22:10:07.994Z,3.50
2022-12-18T22:12:35.673Z,3.50
2022-12-18T22:15:07.426Z,3.55
2022-12-18T22:17:34.579Z,3.35
2022-12-18T22:20:01.801Z,3.33
2022-12-18T22:22:29.081Z,3.45
2022-12-18T22:24:56.252Z,3.33
2022-12-18T22:27:23.406Z,3.00
2022-12-18T22:30:06.047Z,2.97
2022-12-18T22:32:33.974Z,3.30
2022-12-18T22:35:06.798Z,2.97
2022-12-18T22:37:34.410Z,2.88
2022-12-18T22:40:09.585Z,3.08
2022-12-18T22:42:42.951Z,2.90
2022-12-18T22:45:10.217Z,3.13
2022-12-18T22:47:40.095Z,3.03
2022-12-18T22:50:12.718Z,3.03
2022-12-18T22:52:39.818Z,2.80
2022-12-18T22:55:07.426Z,2.92
2022-12-18T22:57:34.653Z,3.00
2022-12-18T23:00:02.774Z,3.10
2022-12-18T23:02:30.249Z,3.30
2022-12-18T23:04:57.523Z,3.40
2022-12-18T23:07:24.983Z,3.10
2022-12-18T23:09:59.548Z,3.13
2022-12-18T23:12:28.055Z,3.08
2022-12-18T23:14:55.186Z,2.75
2022-12-18T23:17:22.340Z,3.10
2022-12-18T23:19:49.605Z,3.03
2022-12-18T23:22:17.198Z,2.75
2022-12-18T23:24:44.468Z,2.80
2022-12-18T23:27:12.262Z,2.97
2022-12-18T23:29:39.902Z,2.92
2022-12-18T23:32:07.044Z,2.88
2022-12-18T23:34:34.151Z,3.13
2022-12-18T23:37:03.478Z,2.90
2022-12-18T23:39:30.620Z,2.80
2022-12-18T23:42:00.805Z,2.45
2022-12-18T23:44:28.561Z,3.20
2022-12-18T23:46:56.020Z,2.90
2022-12-18T23:49:23.412Z,2.70
2022-12-18T23:51:50.840Z,3.28
2022-12-18T23:54:18.929Z,2.60
2022-12-18T23:57:00.353Z,2.97
2022-12-18T23:59:27.432Z,2.30
